Time;durP1;ratioP1;P1;durP2;ratioP2;P2;SDS_P1;SDS_P2;PMS_P1;PMS_P2;Temp;Humidity;BMP_temperature;BMP_pressure;BME280_temperature;BME280_humidity;BME280_pressure;Samples;Min_cycle;Max_cycle;Signal;HPM_P1;HPM_P2
2023/09/17 00:00:19;;;;;;;9.88;7.78;;;;;14.60;96294.00;;;;8309384;28;20225;-64
2023/09/17 00:04:29;;;;;;;10.70;7.55;;;;;14.50;96308.00;;;;8314561;28;20264;-65
2023/09/17 00:08:33;;;;;;;12.35;7.68;;;;;14.50;96303.00;;;;8311670;28;20674;-65
2023/09/17 00:12:38;;;;;;;11.90;8.20;;;;;14.50;96301.00;;;;8313861;28;20221;-65
2023/09/17 00:16:42;;;;;;;10.52;7.85;;;;;14.40;96307.00;;;;8311415;28;20199;-65
2023/09/17 00:20:48;;;;;;;11.45;8.35;;;;;14.30;96308.00;;;;8312184;28;20232;-65
2023/09/17 00:25:02;;;;;;;10.18;7.55;;;;;14.30;96317.00;;;;8311372;28;20201;-65
2023/09/17 00:29:07;;;;;;;13.57;8.73;;;;;14.20;96313.00;;;;8313898;28;20297;-66
2023/09/17 00:33:10;;;;;;;12.25;7.85;;;;;14.20;96318.00;;;;8316958;28;20201;-65
2023/09/17 00:37:15;;;;;;;14.32;9.13;;;;;14.20;96309.00;;;;8312903;28;20203;-65
2023/09/17 00:41:20;;;;;;;13.27;8.60;;;;;14.10;96315.00;;;;8315866;28;20229;-65
2023/09/17 00:45:23;;;;;;;11.10;8.63;;;;;14.10;96318.00;;;;8310684;28;20202;-65
2023/09/17 00:49:27;;;;;;;11.75;7.53;;;;;14.00;96313.00;;;;8314956;28;20231;-65
2023/09/17 00:53:31;;;;;;;12.18;8.07;;;;;14.00;96307.00;;;;8313337;28;20232;-65
2023/09/17 00:57:45;;;;;;;13.00;8.77;;;;;13.90;96308.00;;;;8304287;28;20261;-65
2023/09/17 01:01:49;;;;;;;11.05;7.38;;;;;13.90;96309.00;;;;8314413;28;20256;-65
2023/09/17 01:05:57;;;;;;;11.55;8.25;;;;;13.90;96307.00;;;;8313118;28;20256;-65
2023/09/17 01:10:02;;;;;;;12.75;7.78;;;;;13.90;96308.00;;;;8313907;28;20292;-65
2023/09/17 01:14:15;;;;;;;12.82;8.18;;;;;13.90;96305.00;;;;8309738;28;20308;-65
2023/09/17 01:18:21;;;;;;;10.38;7.93;;;;;13.90;96317.00;;;;8309454;28;20213;-65
2023/09/17 01:22:29;;;;;;;8.93;7.28;;;;;13.90;96313.00;;;;8312803;28;20287;-65
2023/09/17 01:26:39;;;;;;;12.02;7.40;;;;;13.80;96312.00;;;;8314067;28;20287;-65
2023/09/17 01:30:48;;;;;;;11.98;8.27;;;;;13.70;96299.00;;;;8314343;28;21096;-65
2023/09/17 01:34:53;;;;;;;16.05;8.32;;;;;13.60;96302.00;;;;8313762;28;20214;-65
2023/09/17 01:39:08;;;;;;;27.10;12.02;;;;;13.60;96303.00;;;;8314047;28;20292;-66
2023/09/17 01:43:13;;;;;;;16.92;9.82;;;;;13.60;96294.00;;;;8312723;28;20240;-66
2023/09/17 01:47:19;;;;;;;15.48;9.20;;;;;13.60;96288.00;;;;8307833;28;20200;-63
2023/09/17 01:51:22;;;;;;;14.57;8.48;;;;;13.60;96301.00;;;;8307287;28;20346;-66
2023/09/17 01:55:29;;;;;;;13.02;9.07;;;;;13.60;96304.00;;;;8296540;28;20746;-66
2023/09/17 01:59:35;;;;;;;11.73;8.20;;;;;13.50;96295.00;;;;8309677;28;20216;-63
2023/09/17 02:03:42;;;;;;;12.68;7.80;;;;;13.50;96300.00;;;;8310457;28;20292;-64
2023/09/17 02:07:53;;;;;;;13.55;8.05;;;;;13.50;96284.00;;;;8314685;28;20594;-64
2023/09/17 02:11:59;;;;;;;13.35;8.75;;;;;13.50;96282.00;;;;8312045;28;20266;-64
2023/09/17 02:16:04;;;;;;;15.38;8.32;;;;;13.50;96288.00;;;;8322128;28;20200;-64
2023/09/17 02:20:11;;;;;;;12.32;8.70;;;;;13.50;96283.00;;;;8320987;28;20260;-64
2023/09/17 02:24:14;;;;;;;13.20;7.82;;;;;13.40;96289.00;;;;8322247;28;20204;-64
2023/09/17 02:28:22;;;;;;;17.77;8.48;;;;;13.40;96287.00;;;;8323849;28;20196;-64
2023/09/17 02:32:25;;;;;;;11.23;7.30;;;;;13.40;96280.00;;;;8322084;28;20289;-64
2023/09/17 02:36:34;;;;;;;14.60;8.20;;;;;13.40;96282.00;;;;8319174;28;20662;-64
2023/09/17 02:40:39;;;;;;;16.73;8.45;;;;;13.30;96288.00;;;;8318686;28;20233;-65
2023/09/17 02:44:44;;;;;;;14.90;8.20;;;;;13.30;96284.00;;;;8324253;28;20729;-64
2023/09/17 02:48:47;;;;;;;12.57;7.95;;;;;13.20;96285.00;;;;8325458;28;20288;-64
2023/09/17 02:52:52;;;;;;;17.13;8.18;;;;;13.30;96286.00;;;;8315032;28;20196;-64
2023/09/17 02:56:58;;;;;;;11.48;8.10;;;;;13.30;96274.00;;;;8308353;28;20703;-64
2023/09/17 03:01:04;;;;;;;11.80;7.80;;;;;13.20;96265.00;;;;8384113;22;20228;-64
2023/09/17 03:05:11;;;;;;;13.93;8.15;;;;;13.20;96270.00;;;;8283784;28;20233;-64
2023/09/17 03:09:18;;;;;;;58.08;23.33;;;;;13.20;96276.00;;;;8290110;28;20252;-64
2023/09/17 03:13:22;;;;;;;72.97;29.42;;;;;13.10;96280.00;;;;8264833;28;20236;-63
2023/09/17 03:17:28;;;;;;;25.38;12.15;;;;;13.20;96276.00;;;;8290195;28;20208;-63
2023/09/17 03:21:34;;;;;;;30.60;14.27;;;;;13.20;96274.00;;;;8290070;28;20528;-63
2023/09/17 03:25:47;;;;;;;20.20;10.70;;;;;13.20;96288.00;;;;8283784;28;20212;-64
2023/09/17 03:29:51;;;;;;;26.75;12.00;;;;;13.10;96297.00;;;;8284277;28;20248;-64
2023/09/17 03:33:55;;;;;;;31.77;13.82;;;;;13.10;96294.00;;;;8283819;28;20199;-64
2023/09/17 03:37:58;;;;;;;32.10;15.35;;;;;13.20;96306.00;;;;8285806;28;20194;-64
2023/09/17 03:42:03;;;;;;;25.48;13.13;;;;;13.10;96306.00;;;;8285211;28;20298;-64
2023/09/17 03:46:09;;;;;;;23.98;12.43;;;;;13.10;96312.00;;;;8284386;28;20197;-65
2023/09/17 03:50:16;;;;;;;24.42;11.98;;;;;13.10;96301.00;;;;8285145;28;20205;-65
2023/09/17 03:54:23;;;;;;;17.13;9.60;;;;;13.20;96303.00;;;;8283162;28;20243;-64
2023/09/17 03:58:30;;;;;;;17.92;9.77;;;;;13.20;96308.00;;;;8285693;28;20212;-65
2023/09/17 04:02:34;;;;;;;19.70;9.68;;;;;13.20;96312.00;;;;8281046;28;20228;-64
2023/09/17 04:06:38;;;;;;;27.33;9.90;;;;;13.20;96301.00;;;;8276321;28;20279;-64
2023/09/17 04:10:46;;;;;;;20.63;10.98;;;;;13.30;96312.00;;;;8283271;28;20204;-64
2023/09/17 04:14:51;;;;;;;17.85;9.90;;;;;13.30;96322.00;;;;8282701;28;20201;-65
2023/09/17 04:18:57;;;;;;;16.45;9.70;;;;;13.40;96321.00;;;;8282406;28;20710;-65
2023/09/17 04:23:00;;;;;;;17.85;9.52;;;;;13.40;96321.00;;;;8281573;28;20316;-65
2023/09/17 04:27:11;;;;;;;17.40;10.32;;;;;13.50;96335.00;;;;8282870;28;20276;-64
2023/09/17 04:31:18;;;;;;;23.08;11.52;;;;;13.50;96329.00;;;;8278201;28;20214;-64
2023/09/17 04:35:25;;;;;;;31.90;15.18;;;;;13.40;96336.00;;;;8271631;28;20210;-64
2023/09/17 04:39:30;;;;;;;22.48;11.93;;;;;13.40;96341.00;;;;8279165;28;20201;-65
2023/09/17 04:43:34;;;;;;;39.50;18.77;;;;;13.40;96344.00;;;;8283651;28;20247;-64
2023/09/17 04:47:40;;;;;;;34.22;14.63;;;;;13.40;96345.00;;;;8282934;28;20192;-65
2023/09/17 04:51:43;;;;;;;29.90;12.70;;;;;13.50;96339.00;;;;8283854;28;20635;-65
2023/09/17 04:55:48;;;;;;;25.13;12.70;;;;;13.50;96341.00;;;;8280640;28;20208;-65
2023/09/17 04:59:52;;;;;;;21.98;11.57;;;;;13.60;96352.00;;;;8281677;28;20220;-65
2023/09/17 05:04:02;;;;;;;24.27;11.88;;;;;13.60;96358.00;;;;8282018;28;20229;-65
2023/09/17 05:08:09;;;;;;;33.38;16.88;;;;;13.70;96367.00;;;;8273653;28;20207;-65
2023/09/17 05:12:13;;;;;;;30.48;13.70;;;;;13.70;96361.00;;;;8279788;28;20206;-66
2023/09/17 05:16:16;;;;;;;23.95;11.73;;;;;13.70;96365.00;;;;8277199;28;20209;-67
2023/09/17 05:20:23;;;;;;;20.23;11.80;;;;;13.80;96373.00;;;;8275068;28;20562;-67
2023/09/17 05:24:26;;;;;;;20.02;10.23;;;;;13.70;96372.00;;;;8278321;28;20281;-66
2023/09/17 05:28:32;;;;;;;17.55;9.55;;;;;13.80;96380.00;;;;8282813;28;20204;-66
2023/09/17 05:32:38;;;;;;;28.52;14.07;;;;;13.80;96388.00;;;;8277311;28;20290;-66
2023/09/17 05:36:45;;;;;;;30.88;14.52;;;;;13.90;96394.00;;;;8280596;28;20316;-67
2023/09/17 05:40:53;;;;;;;17.27;9.88;;;;;13.90;96387.00;;;;8275850;28;20204;-67
2023/09/17 05:45:00;;;;;;;12.00;8.25;;;;;14.10;96378.00;;;;8277109;28;20202;-67
2023/09/17 05:49:06;;;;;;;19.25;10.32;;;;;14.30;96379.00;;;;8281777;28;20202;-67
2023/09/17 05:53:11;;;;;;;17.40;9.88;;;;;14.60;96387.00;;;;8278462;28;20300;-66
2023/09/17 05:57:15;;;;;;;16.27;9.65;;;;;14.90;96386.00;;;;8279295;28;20198;-66
2023/09/17 06:01:19;;;;;;;16.10;9.38;;;;;15.30;96383.00;;;;8277626;28;20245;-65
2023/09/17 06:05:22;;;;;;;15.50;8.82;;;;;15.70;96383.00;;;;8275382;28;20217;-66
2023/09/17 06:09:29;;;;;;;15.32;9.45;;;;;16.20;96383.00;;;;8278035;28;20201;-66
2023/09/17 06:13:44;;;;;;;21.20;11.13;;;;;16.60;96389.00;;;;8280423;28;20220;-66
2023/09/17 06:17:48;;;;;;;15.05;8.90;;;;;17.00;96383.00;;;;8275970;28;20313;-66
2023/09/17 06:21:53;;;;;;;10.70;7.07;;;;;17.30;96407.00;;;;8274514;28;20225;-67
2023/09/17 06:26:00;;;;;;;12.02;6.63;;;;;17.40;96396.00;;;;8278850;28;20194;-66
2023/09/17 06:30:05;;;;;;;8.13;6.38;;;;;17.50;96401.00;;;;8280676;28;20289;-66
2023/09/17 06:34:13;;;;;;;11.20;6.30;;;;;17.60;96393.00;;;;8277143;28;20194;-66
2023/09/17 06:38:18;;;;;;;10.73;6.13;;;;;17.60;96406.00;;;;8278336;28;20717;-66
2023/09/17 06:42:29;;;;;;;9.32;6.30;;;;;17.70;96415.00;;;;8271718;28;20262;-67
2023/09/17 06:46:33;;;;;;;8.70;6.38;;;;;17.90;96414.00;;;;8277022;28;20679;-66
2023/09/17 06:50:41;;;;;;;9.90;6.32;;;;;18.20;96402.00;;;;8275980;28;20695;-66
2023/09/17 06:54:46;;;;;;;6.57;5.57;;;;;18.60;96398.00;;;;8273728;28;20209;-65
2023/09/17 06:58:51;;;;;;;8.80;6.35;;;;;19.00;96396.00;;;;8283338;28;20665;-65
2023/09/17 07:02:55;;;;;;;7.47;6.32;;;;;19.50;96413.00;;;;8278533;28;20242;-65
2023/09/17 07:07:00;;;;;;;7.15;5.63;;;;;20.00;96413.00;;;;8278477;28;20190;-66
2023/09/17 07:11:04;;;;;;;7.75;5.95;;;;;20.40;96416.00;;;;8283085;28;20233;-65
2023/09/17 07:15:13;;;;;;;11.27;5.78;;;;;20.80;96419.00;;;;8281925;28;20276;-66
2023/09/17 07:19:17;;;;;;;7.32;5.35;;;;;20.90;96428.00;;;;8281003;28;20230;-65
2023/09/17 07:23:21;;;;;;;5.55;4.93;;;;;21.10;96426.00;;;;8284002;28;20284;-65
2023/09/17 07:27:24;;;;;;;5.97;5.38;;;;;21.30;96432.00;;;;8281954;28;20209;-65
2023/09/17 07:31:32;;;;;;;6.38;5.13;;;;;21.50;96431.00;;;;8282345;28;20209;-65
2023/09/17 07:35:36;;;;;;;5.22;4.72;;;;;21.70;96424.00;;;;8281081;28;20237;-65
2023/09/17 07:39:40;;;;;;;5.07;4.53;;;;;21.90;96432.00;;;;8284180;28;20198;-65
2023/09/17 07:43:47;;;;;;;6.63;5.55;;;;;21.90;96423.00;;;;8281702;28;20237;-65
2023/09/17 07:48:00;;;;;;;7.15;5.45;;;;;22.10;96424.00;;;;8282517;28;20190;-66
2023/09/17 07:52:04;;;;;;;8.25;5.72;;;;;22.50;96417.00;;;;8282612;28;20206;-66
2023/09/17 07:56:10;;;;;;;7.65;5.95;;;;;23.10;96414.00;;;;8281976;28;20720;-64
2023/09/17 08:00:15;;;;;;;6.15;5.55;;;;;23.40;96420.00;;;;8277618;28;20286;-66
2023/09/17 08:04:20;;;;;;;11.63;5.70;;;;;23.60;96433.00;;;;8277522;28;20236;-67
2023/09/17 08:08:59;;;;;;;5.85;5.18;;;;;23.60;96433.00;;;;8275973;28;20205;-67
2023/09/17 08:13:06;;;;;;;6.13;5.13;;;;;23.70;96435.00;;;;8280759;28;20273;-67
2023/09/17 08:17:17;;;;;;;6.88;4.93;;;;;23.90;96440.00;;;;8276857;28;20206;-65
2023/09/17 08:21:23;;;;;;;5.40;4.90;;;;;24.10;96442.00;;;;8272832;28;20195;-67
2023/09/17 08:25:27;;;;;;;5.75;5.20;;;;;24.20;96446.00;;;;8275272;28;20225;-66
2023/09/17 08:29:30;;;;;;;8.95;5.85;;;;;24.60;96461.00;;;;8275697;28;20202;-67
2023/09/17 08:33:36;;;;;;;6.30;5.70;;;;;25.00;96466.00;;;;8278935;28;20666;-67
2023/09/17 08:37:42;;;;;;;10.93;5.22;;;;;25.50;96466.00;;;;8277730;28;20208;-69
2023/09/17 08:41:48;;;;;;;6.35;5.50;;;;;25.90;96459.00;;;;8280836;28;20238;-68
2023/09/17 08:46:03;;;;;;;6.90;4.75;;;;;26.30;96457.00;;;;8279524;28;20827;-68
2023/09/17 08:50:09;;;;;;;7.05;5.18;;;;;27.00;96460.00;;;;8281521;28;20686;-68
2023/09/17 08:54:18;;;;;;;6.53;5.13;;;;;27.70;96463.00;;;;8279929;28;20289;-69
2023/09/17 08:58:27;;;;;;;5.50;4.65;;;;;28.20;96466.00;;;;8279466;28;20237;-69
2023/09/17 09:02:41;;;;;;;5.93;4.82;;;;;28.80;96466.00;;;;8274843;28;20288;-69
2023/09/17 09:06:50;;;;;;;7.15;4.90;;;;;29.40;96464.00;;;;8275231;28;20572;-68
2023/09/17 09:10:55;;;;;;;5.35;4.85;;;;;29.90;96459.00;;;;8275224;28;20249;-69
2023/09/17 09:15:03;;;;;;;5.53;4.43;;;;;30.00;96465.00;;;;8276542;28;20288;-69
2023/09/17 09:19:16;;;;;;;5.55;4.80;;;;;29.40;96467.00;;;;8273388;28;20198;-69
2023/09/17 09:23:22;;;;;;;5.93;4.18;;;;;28.90;96471.00;;;;8276412;28;20322;-70
2023/09/17 09:27:30;;;;;;;5.50;5.00;;;;;28.50;96468.00;;;;8273406;28;20237;-70
2023/09/17 09:31:34;;;;;;;5.03;4.53;;;;;28.50;96464.00;;;;8274589;28;20292;-70
2023/09/17 09:35:37;;;;;;;6.20;4.60;;;;;28.50;96467.00;;;;8274038;28;20630;-70
2023/09/17 09:39:50;;;;;;;4.55;4.15;;;;;28.40;96466.00;;;;8274011;28;20333;-70
2023/09/17 09:43:59;;;;;;;5.45;4.95;;;;;28.60;96477.00;;;;8272614;28;20230;-70
2023/09/17 09:48:14;;;;;;;7.05;4.75;;;;;28.80;96471.00;;;;8275178;28;20941;-69
2023/09/17 09:52:18;;;;;;;5.50;4.53;;;;;28.90;96473.00;;;;8273404;28;20232;-70
2023/09/17 09:56:27;;;;;;;6.65;4.80;;;;;29.00;96480.00;;;;8277875;28;20285;-70
2023/09/17 10:00:35;;;;;;;5.68;5.15;;;;;29.50;96484.00;;;;8272925;28;20208;-71
2023/09/17 10:04:41;;;;;;;7.47;5.05;;;;;30.40;96479.00;;;;8280171;28;20321;-71
2023/09/17 10:08:44;;;;;;;7.00;4.32;;;;;31.20;96480.00;;;;8279090;28;20213;-72
2023/09/17 10:12:52;;;;;;;4.68;4.15;;;;;31.70;96473.00;;;;8275685;28;20218;-71
2023/09/17 10:17:00;;;;;;;4.85;4.45;;;;;31.70;96486.00;;;;8276941;28;20204;-72
2023/09/17 10:21:07;;;;;;;5.20;4.70;;;;;31.40;96479.00;;;;8275862;28;20302;-71
2023/09/17 10:25:17;;;;;;;4.82;3.92;;;;;31.40;96476.00;;;;8274853;28;20240;-71
2023/09/17 10:29:22;;;;;;;5.15;4.65;;;;;31.60;96479.00;;;;8277771;28;20198;-72
2023/09/17 10:33:31;;;;;;;5.05;4.30;;;;;32.00;96475.00;;;;8274928;28;20261;-70
2023/09/17 10:37:36;;;;;;;6.18;5.57;;;;;32.30;96479.00;;;;8278302;28;20229;-70
2023/09/17 10:41:42;;;;;;;5.57;5.07;;;;;32.20;96489.00;;;;8285932;28;20224;-71
2023/09/17 10:45:46;;;;;;;4.75;4.35;;;;;32.10;96479.00;;;;8282090;28;20222;-71
2023/09/17 10:49:53;;;;;;;4.38;4.00;;;;;32.30;96476.00;;;;8284236;28;20216;-71
2023/09/17 10:53:59;;;;;;;5.63;4.47;;;;;32.30;96468.00;;;;8266932;28;20206;-72
2023/09/17 10:58:09;;;;;;;4.45;3.97;;;;;32.30;96462.00;;;;8283374;28;20191;-71
2023/09/17 11:02:14;;;;;;;4.57;3.88;;;;;32.40;96457.00;;;;8278544;28;20726;-71
2023/09/17 11:06:27;;;;;;;8.60;3.78;;;;;32.00;96458.00;;;;8283741;28;20230;-71
2023/09/17 11:10:31;;;;;;;9.27;4.18;;;;;31.70;96464.00;;;;8283257;28;20252;-71
2023/09/17 11:14:40;;;;;;;4.20;3.80;;;;;31.60;96459.00;;;;8285387;28;20201;-71
2023/09/17 11:19:05;;;;;;;5.53;4.40;;;;;31.40;96455.00;;;;8283172;28;21697;-71
2023/09/17 11:23:11;;;;;;;5.50;4.30;;;;;31.40;96450.00;;;;8275246;28;20198;-71
2023/09/17 11:27:19;;;;;;;6.65;4.55;;;;;31.20;96453.00;;;;8280258;28;20208;-68
2023/09/17 11:31:26;;;;;;;5.22;3.90;;;;;30.90;96439.00;;;;8281733;28;20202;-69
2023/09/17 11:35:29;;;;;;;4.70;4.40;;;;;30.90;96443.00;;;;8279190;28;21820;-69
2023/09/17 11:39:38;;;;;;;5.15;4.60;;;;;30.90;96441.00;;;;8282900;28;20226;-70
2023/09/17 11:43:45;;;;;;;5.85;4.60;;;;;30.80;96428.00;;;;8279478;28;20704;-69
2023/09/17 11:47:48;;;;;;;5.20;4.80;;;;;30.70;96427.00;;;;8284926;28;20260;-70
2023/09/17 11:51:54;;;;;;;8.60;4.75;;;;;30.40;96425.00;;;;8278964;28;20203;-69
2023/09/17 11:56:04;;;;;;;5.00;4.60;;;;;30.30;96419.00;;;;8276777;28;20242;-70
2023/09/17 12:00:11;;;;;;;4.45;4.05;;;;;30.10;96419.00;;;;8283615;28;20206;-69
2023/09/17 12:04:16;;;;;;;5.25;3.85;;;;;30.10;96414.00;;;;8275364;28;20272;-70
2023/09/17 12:08:24;;;;;;;4.50;4.10;;;;;30.10;96410.00;;;;8279607;28;20206;-70
2023/09/17 12:12:33;;;;;;;4.35;3.95;;;;;30.10;96405.00;;;;8274883;28;20202;-70
2023/09/17 12:16:37;;;;;;;4.05;3.75;;;;;30.00;96411.00;;;;8274313;28;20845;-70
2023/09/17 12:20:57;;;;;;;5.38;4.05;;;;;30.00;96400.00;;;;8279418;28;20198;-70
2023/09/17 12:25:18;;;;;;;4.90;4.38;;;;;29.90;96399.00;;;;8275337;28;20245;-68
2023/09/17 12:29:24;;;;;;;3.92;3.67;;;;;29.70;96389.00;;;;8275121;28;20198;-69
2023/09/17 12:33:29;;;;;;;6.15;3.83;;;;;29.70;96384.00;;;;8275146;28;20206;-69
2023/09/17 12:37:32;;;;;;;4.38;3.97;;;;;29.80;96388.00;;;;8276466;28;20208;-69
2023/09/17 12:41:37;;;;;;;4.60;4.20;;;;;29.90;96385.00;;;;8281320;28;20198;-69
2023/09/17 12:45:44;;;;;;;4.03;3.72;;;;;30.00;96380.00;;;;8277250;28;20230;-69
2023/09/17 12:49:48;;;;;;;4.22;3.80;;;;;30.00;96379.00;;;;8279857;28;20238;-69
2023/09/17 12:54:02;;;;;;;4.10;3.80;;;;;29.90;96375.00;;;;8276810;28;20198;-69
2023/09/17 12:58:09;;;;;;;4.32;3.92;;;;;30.10;96377.00;;;;8280686;28;20841;-69
2023/09/17 13:02:17;;;;;;;4.60;4.10;;;;;30.20;96374.00;;;;8271998;28;20972;-69
2023/09/17 13:06:21;;;;;;;3.75;3.45;;;;;30.30;96377.00;;;;8280032;28;20226;-68
2023/09/17 13:10:25;;;;;;;4.72;4.05;;;;;30.40;96368.00;;;;8276993;28;20277;-70
2023/09/17 13:14:31;;;;;;;4.47;3.83;;;;;30.50;96362.00;;;;8274657;28;20811;-70
2023/09/17 13:18:37;;;;;;;4.40;4.00;;;;;30.60;96362.00;;;;8272671;28;20201;-70
2023/09/17 13:22:41;;;;;;;4.03;3.72;;;;;30.70;96357.00;;;;8275194;28;20195;-70
2023/09/17 13:26:44;;;;;;;4.72;3.88;;;;;30.70;96353.00;;;;8279175;28;20230;-70
2023/09/17 13:30:48;;;;;;;3.92;3.40;;;;;30.70;96358.00;;;;8277100;28;20229;-70
2023/09/17 13:34:53;;;;;;;3.53;3.33;;;;;30.70;96351.00;;;;8277961;28;20757;-70
2023/09/17 13:38:58;;;;;;;3.72;3.42;;;;;30.80;96344.00;;;;8275540;28;20249;-70
2023/09/17 13:43:06;;;;;;;3.88;3.58;;;;;30.90;96341.00;;;;8279718;28;20202;-70
2023/09/17 13:47:12;;;;;;;3.85;3.50;;;;;31.10;96349.00;;;;8269290;28;20226;-69
2023/09/17 13:51:23;;;;;;;3.78;3.47;;;;;31.20;96342.00;;;;8274054;28;20207;-71
2023/09/17 13:55:26;;;;;;;3.40;3.20;;;;;31.40;96341.00;;;;8279657;28;20300;-70
2023/09/17 13:59:37;;;;;;;3.65;3.45;;;;;31.60;96347.00;;;;8272198;28;20208;-70
2023/09/17 14:03:40;;;;;;;3.67;3.47;;;;;31.80;96347.00;;;;8277799;28;20226;-70
2023/09/17 14:07:49;;;;;;;4.63;3.33;;;;;31.90;96344.00;;;;8275869;28;20313;-71
2023/09/17 14:11:53;;;;;;;3.90;3.50;;;;;31.90;96355.00;;;;8269262;28;20197;-70
2023/09/17 14:15:58;;;;;;;3.67;3.33;;;;;31.80;96353.00;;;;8277500;28;20206;-71
2023/09/17 14:20:02;;;;;;;3.88;3.58;;;;;31.90;96356.00;;;;8279113;28;20228;-74
2023/09/17 14:24:07;;;;;;;3.85;3.55;;;;;31.80;96353.00;;;;8277314;28;20216;-74
2023/09/17 14:28:10;;;;;;;3.88;3.53;;;;;31.70;96354.00;;;;8278943;28;20202;-74
2023/09/17 14:32:19;;;;;;;3.67;3.42;;;;;31.80;96350.00;;;;8276421;28;20198;-74
2023/09/17 14:36:23;;;;;;;4.00;3.58;;;;;31.80;96344.00;;;;8279167;28;20774;-74
2023/09/17 14:40:27;;;;;;;5.07;3.50;;;;;31.80;96344.00;;;;8280100;28;20293;-74
2023/09/17 14:44:31;;;;;;;3.78;3.40;;;;;31.80;96348.00;;;;8280771;28;20225;-74
2023/09/17 14:48:34;;;;;;;6.25;3.60;;;;;31.90;96347.00;;;;8272241;28;20245;-75
2023/09/17 14:52:38;;;;;;;3.47;3.28;;;;;32.00;96337.00;;;;8273168;28;20288;-74
2023/09/17 14:56:48;;;;;;;4.25;3.53;;;;;32.10;96332.00;;;;8276681;28;20832;-75
2023/09/17 15:00:54;;;;;;;3.47;3.28;;;;;32.20;96333.00;;;;8270741;28;20194;-74
2023/09/17 15:04:59;;;;;;;3.55;3.15;;;;;32.20;96331.00;;;;8275543;28;20230;-73
2023/09/17 15:09:05;;;;;;;3.95;3.60;;;;;32.30;96325.00;;;;8272603;28;20195;-75
2023/09/17 15:13:09;;;;;;;4.35;3.58;;;;;32.30;96324.00;;;;8276700;28;20202;-73
2023/09/17 15:17:12;;;;;;;4.15;3.28;;;;;32.20;96340.00;;;;8277324;28;20880;-72
2023/09/17 15:21:16;;;;;;;4.03;3.40;;;;;32.20;96335.00;;;;8279008;28;20963;-73
2023/09/17 15:25:19;;;;;;;3.45;3.10;;;;;32.30;96331.00;;;;8280365;28;20226;-72
2023/09/17 15:29:25;;;;;;;4.60;3.53;;;;;32.50;96327.00;;;;8282433;28;20644;-72
2023/09/17 15:33:31;;;;;;;3.40;3.20;;;;;32.40;96324.00;;;;8282148;28;20980;-72
2023/09/17 15:37:36;;;;;;;3.55;3.25;;;;;32.20;96325.00;;;;8283793;28;20599;-72
2023/09/17 15:41:39;;;;;;;4.35;3.53;;;;;32.10;96323.00;;;;8284015;28;20202;-72
2023/09/17 15:45:46;;;;;;;4.45;3.28;;;;;32.30;96319.00;;;;8282769;28;20253;-73
2023/09/17 15:49:51;;;;;;;3.35;3.15;;;;;32.50;96310.00;;;;8283255;28;20610;-72
2023/09/17 15:53:56;;;;;;;4.60;3.50;;;;;32.50;96304.00;;;;8280348;28;20202;-72
2023/09/17 15:57:59;;;;;;;6.38;3.33;;;;;32.30;96303.00;;;;8284289;28;20635;-72
2023/09/17 16:02:04;;;;;;;5.82;3.60;;;;;32.20;96298.00;;;;8277991;28;20695;-74
2023/09/17 16:06:12;;;;;;;3.72;3.50;;;;;32.00;96294.00;;;;8282558;28;20268;-73
2023/09/17 16:10:17;;;;;;;3.60;3.28;;;;;31.60;96291.00;;;;8280673;28;20683;-73
2023/09/17 16:14:23;;;;;;;3.88;3.58;;;;;31.20;96284.00;;;;8281480;28;20202;-73
2023/09/17 16:18:30;;;;;;;5.28;3.60;;;;;30.90;96278.00;;;;8280018;28;20361;-73
2023/09/17 16:22:35;;;;;;;3.88;3.45;;;;;30.60;96293.00;;;;8279316;28;20199;-72
2023/09/17 16:26:41;;;;;;;5.15;3.65;;;;;30.30;96284.00;;;;8275711;28;20242;-74
2023/09/17 16:30:45;;;;;;;4.07;3.67;;;;;29.90;96282.00;;;;8281775;28;20283;-73
2023/09/17 16:34:57;;;;;;;3.85;3.55;;;;;29.40;96282.00;;;;8277576;28;20194;-71
2023/09/17 16:39:09;;;;;;;4.65;3.28;;;;;29.10;96291.00;;;;8283040;28;20205;-72
2023/09/17 16:43:13;;;;;;;6.22;3.90;;;;;28.80;96279.00;;;;8278923;28;20212;-71
2023/09/17 16:47:24;;;;;;;4.32;4.00;;;;;28.50;96277.00;;;;8283703;28;20237;-71
2023/09/17 16:51:28;;;;;;;4.40;4.00;;;;;28.20;96283.00;;;;8284654;28;20225;-71
2023/09/17 16:55:33;;;;;;;4.25;3.85;;;;;27.90;96283.00;;;;8277886;28;20202;-74
2023/09/17 16:59:39;;;;;;;4.40;4.00;;;;;27.60;96282.00;;;;8279914;28;20595;-66
2023/09/17 17:03:48;;;;;;;4.88;3.97;;;;;27.30;96275.00;;;;8274866;28;20317;-67
2023/09/17 17:07:57;;;;;;;5.45;4.20;;;;;27.00;96277.00;;;;8281810;28;20254;-67
2023/09/17 17:12:01;;;;;;;4.05;3.75;;;;;26.70;96261.00;;;;8274292;28;20264;-67
2023/09/17 17:16:10;;;;;;;9.15;4.40;;;;;26.50;96256.00;;;;8277720;28;20221;-68
2023/09/17 17:20:15;;;;;;;4.45;4.15;;;;;26.20;96255.00;;;;8279988;28;20213;-68
2023/09/17 17:24:24;;;;;;;5.78;4.72;;;;;25.90;96246.00;;;;8283193;28;20198;-68
2023/09/17 17:28:30;;;;;;;5.63;4.82;;;;;25.70;96247.00;;;;8281103;28;20244;-68
2023/09/17 17:32:33;;;;;;;6.60;4.38;;;;;25.50;96250.00;;;;8280631;28;20209;-68
2023/09/17 17:36:37;;;;;;;6.22;4.78;;;;;25.30;96252.00;;;;8279507;28;20669;-68
2023/09/17 17:40:43;;;;;;;5.38;4.88;;;;;25.10;96245.00;;;;8273301;28;20233;-67
2023/09/17 17:44:46;;;;;;;6.00;4.50;;;;;24.90;96242.00;;;;8280316;28;20205;-68
2023/09/17 17:48:53;;;;;;;5.20;4.70;;;;;24.70;96231.00;;;;8279764;28;20228;-68
2023/09/17 17:52:56;;;;;;;5.65;4.57;;;;;24.60;96240.00;;;;8280597;28;20205;-67
2023/09/17 17:57:03;;;;;;;7.30;5.07;;;;;24.40;96240.00;;;;8278155;28;20238;-67
2023/09/17 18:01:09;;;;;;;8.43;4.85;;;;;24.30;96247.00;;;;8277557;28;20558;-67
2023/09/17 18:05:13;;;;;;;7.70;5.00;;;;;24.20;96252.00;;;;8274908;28;20212;-67
2023/09/17 18:09:19;;;;;;;5.20;4.70;;;;;24.00;96250.00;;;;8279269;28;20232;-67
2023/09/17 18:13:23;;;;;;;4.97;4.28;;;;;23.90;96250.00;;;;8278529;28;20206;-67
2023/09/17 18:17:27;;;;;;;8.00;4.60;;;;;23.70;96250.00;;;;8273673;28;20197;-67
2023/09/17 18:21:34;;;;;;;5.38;4.80;;;;;23.60;96239.00;;;;8275368;28;20244;-67
2023/09/17 18:25:38;;;;;;;6.28;5.43;;;;;23.40;96236.00;;;;8274063;28;20286;-65
2023/09/17 18:29:43;;;;;;;8.15;5.50;;;;;23.30;96228.00;;;;8278099;28;20645;-66
2023/09/17 18:33:46;;;;;;;5.50;5.00;;;;;23.20;96235.00;;;;8277093;28;20285;-66
2023/09/17 18:37:49;;;;;;;7.20;5.30;;;;;23.20;96232.00;;;;8274908;28;20236;-66
2023/09/17 18:41:54;;;;;;;5.93;5.38;;;;;23.10;96237.00;;;;8277051;28;20206;-66
2023/09/17 18:46:04;;;;;;;7.72;5.15;;;;;23.00;96243.00;;;;8275827;28;20329;-66
2023/09/17 18:50:10;;;;;;;6.82;4.85;;;;;23.00;96241.00;;;;8277561;28;20652;-66
2023/09/17 18:54:14;;;;;;;7.15;5.45;;;;;22.90;96241.00;;;;8280716;28;20281;-66
2023/09/17 18:58:17;;;;;;;5.82;5.22;;;;;22.90;96248.00;;;;8284866;28;20248;-66
2023/09/17 19:02:22;;;;;;;5.22;4.80;;;;;22.80;96254.00;;;;8285297;28;20337;-67
2023/09/17 19:06:25;;;;;;;7.05;5.68;;;;;22.80;96248.00;;;;8288350;28;20226;-66
2023/09/17 19:10:29;;;;;;;6.45;5.07;;;;;22.70;96246.00;;;;8281190;28;20220;-66
2023/09/17 19:14:33;;;;;;;6.68;5.78;;;;;22.50;96247.00;;;;8284926;28;20210;-66
2023/09/17 19:18:54;;;;;;;7.20;5.40;;;;;22.40;96246.00;;;;8287589;28;20289;-64
2023/09/17 19:23:11;;;;;;;7.18;6.15;;;;;22.20;96245.00;;;;8287718;28;20234;-64
2023/09/17 19:27:14;;;;;;;7.95;4.82;;;;;21.90;96234.00;;;;8282302;28;20238;-64
2023/09/17 19:31:18;;;;;;;5.97;5.15;;;;;21.60;96235.00;;;;8275756;28;20206;-64
2023/09/17 19:35:25;;;;;;;6.90;6.20;;;;;21.40;96242.00;;;;8285460;28;20194;-65
2023/09/17 19:39:29;;;;;;;9.60;5.15;;;;;21.20;96237.00;;;;8278400;28;20766;-65
2023/09/17 19:43:32;;;;;;;6.22;5.22;;;;;21.10;96223.00;;;;8315088;28;20204;-65
2023/09/17 19:47:35;;;;;;;7.68;6.30;;;;;20.90;96213.00;;;;8309615;28;20344;-65
2023/09/17 19:51:40;;;;;;;11.95;6.57;;;;;20.70;96194.00;;;;8316000;28;20202;-65
2023/09/17 19:55:47;;;;;;;9.15;7.10;;;;;20.60;96204.00;;;;8311100;28;20198;-65
2023/09/17 19:59:53;;;;;;;9.38;6.25;;;;;20.70;96199.00;;;;8318185;28;20193;-65
2023/09/17 20:03:57;;;;;;;7.03;6.32;;;;;20.80;96197.00;;;;8312877;28;20579;-65
2023/09/17 20:08:07;;;;;;;9.70;6.53;;;;;20.90;96187.00;;;;8317803;28;20316;-65
2023/09/17 20:12:13;;;;;;;8.57;6.60;;;;;21.00;96179.00;;;;8314403;28;20255;-65
2023/09/17 20:16:16;;;;;;;8.73;6.57;;;;;21.10;96181.00;;;;8314971;28;20197;-65
2023/09/17 20:20:23;;;;;;;8.18;6.53;;;;;21.20;96184.00;;;;8315471;28;20285;-65
2023/09/17 20:24:30;;;;;;;7.85;6.15;;;;;21.30;96184.00;;;;8310049;28;20225;-69